This is the latest recevied weather packets stored in our database for station/object SQ5SUI-3. If no packets are shown the sender has not sent any weather packets the latest 10 day(s).
| Time | Temp. | Humidity | Pressure | Rain* | Wind** | Luminosity | Snow |
|---|---|---|---|---|---|---|---|
| 1777937459 | 14.44° C | 55% | 1015.6 hPa | 0 mm | - | - | - |
| 1777935659 | 14.44° C | 53% | 1015.7 hPa | 0 mm | - | - | - |
| 1777933858 | 17.22° C | 43% | 1015.5 hPa | 0 mm | - | - | - |
| 1777932058 | 15.56° C | 50% | 1015.5 hPa | 0 mm | - | - | - |
| 1777930260 | 15° C | 52% | 1015.6 hPa | 0 mm | - | - | - |
| 1777928460 | 15° C | 54% | 1015.6 hPa | 0 mm | - | - | - |
| 1777926659 | 15° C | 52% | 1015.5 hPa | 0 mm | - | - | - |
| 1777924860 | 15.56° C | 50% | 1015.7 hPa | 0 mm | - | - | - |
| 1777923060 | 15° C | 52% | 1015.5 hPa | 0 mm | - | - | - |
| 1777921259 | 16.11° C | 46% | 1016.2 hPa | 0 mm | - | - | - |
| 1777919458 | 16.67° C | 48% | 1017.2 hPa | 0 mm | - | - | - |
| 1777917659 | 19.44° C | 38% | 1018.4 hPa | 0 mm | - | - | - |
| 1777915860 | 24.44° C | 21% | 1019.1 hPa | 0 mm | - | - | - |
| 1777914059 | 27.22° C | 11% | 1019.3 hPa | 0 mm | - | - | - |
| 1777912259 | 28.33° C | 13% | 1019.1 hPa | 0 mm | - | - | - |
| 1777910459 | 27.22° C | 11% | 1018.7 hPa | 0 mm | - | - | - |
| 1777908660 | 27.78° C | 11% | 1018.4 hPa | 0 mm | - | - | - |
| 1777906860 | 28.33° C | 12% | 1017.9 hPa | 0 mm | - | - | - |
| 1777905059 | 28.89° C | 12% | 1017.2 hPa | 0 mm | - | - | - |
| 1777903258 | 30° C | 11% | 1016.3 hPa | 0 mm | - | - | - |
| 1777901459 | 28.89° C | 14% | 1015.1 hPa | 0 mm | - | - | - |
| 1777899659 | 29.44° C | 15% | 1014.6 hPa | 0 mm | - | - | - |
| 1777897858 | 28.33° C | 14% | 1013.9 hPa | 0 mm | - | - | - |
| 1777896060 | 28.89° C | 17% | 1013.4 hPa | 0 mm | - | - | - |
| 1777894258 | 27.78° C | 18% | 1013.2 hPa | 0 mm | - | - | - |
* Rain latest hour (hover to see other rain measurements)
** Current wind speed in m/s (hover to see current wind gust speed)